Time;durP1;ratioP1;P1;durP2;ratioP2;P2;SDS_P1;SDS_P2;PMS_P1;PMS_P2;Temp;Humidity;BMP_temperature;BMP_pressure;BME280_temperature;BME280_humidity;BME280_pressure;Samples;Min_cycle;Max_cycle;Signal;HPM_P1;HPM_P2
2021/10/28 00:13:12;;;;;;;31.38;18.67;;;;;;;7.89;81.06;101227.28;5068153;28;20101;-20
2021/10/28 00:15:41;;;;;;;32.67;18.98;;;;;;;7.79;81.81;101222.16;5067796;28;20455;-20
2021/10/28 00:18:10;;;;;;;33.42;19.40;;;;;;;7.82;81.78;101235.09;5068181;28;20032;-20
2021/10/28 00:20:36;;;;;;;31.13;19.02;;;;;;;7.84;80.98;101230.44;5067782;28;20025;-20
2021/10/28 00:23:05;;;;;;;31.23;18.15;;;;;;;7.97;80.59;101230.72;5050202;28;20097;-21
2021/10/28 00:25:32;;;;;;;31.77;18.70;;;;;;;7.95;79.73;101216.78;5068052;28;20043;-20
2021/10/28 00:27:58;;;;;;;34.92;19.63;;;;;;;7.83;80.26;101215.50;5067403;28;20495;-20
2021/10/28 00:30:23;;;;;;;32.38;18.33;;;;;;;7.90;80.30;101224.44;5050391;28;20082;-20
2021/10/28 00:32:49;;;;;;;32.72;19.27;;;;;;;7.91;79.61;101218.13;5049734;28;20064;-22
2021/10/28 00:35:16;;;;;;;33.33;18.55;;;;;;;7.90;80.04;101228.91;5067641;28;20055;-20
2021/10/28 00:37:42;;;;;;;30.52;17.58;;;;;;;7.83;79.36;101202.22;5051145;28;20029;-19
2021/10/28 00:40:09;;;;;;;32.20;18.65;;;;;;;7.90;79.13;101223.59;5053892;28;20086;-20
2021/10/28 00:42:37;;;;;;;33.25;17.67;;;;;;;7.92;79.32;101222.44;5053504;28;20055;-20
2021/10/28 00:45:04;;;;;;;33.40;18.67;;;;;;;7.96;78.71;101199.84;5037299;28;20091;-21
2021/10/28 00:47:33;;;;;;;30.38;17.80;;;;;;;8.11;78.17;101213.22;5071573;28;20029;-20
2021/10/28 00:49:59;;;;;;;31.85;18.60;;;;;;;7.87;78.49;101214.16;5071032;28;20036;-24
2021/10/28 00:52:24;;;;;;;29.58;17.58;;;;;;;8.14;77.58;101225.31;5054003;28;20055;-20
2021/10/28 00:54:50;;;;;;;32.00;17.63;;;;;;;7.93;78.42;101215.31;5037468;28;20061;-20
2021/10/28 00:57:15;;;;;;;31.48;17.48;;;;;;;7.80;79.01;101214.00;5036717;28;20032;-20
2021/10/28 00:59:41;;;;;;;30.48;18.65;;;;;;;7.69;79.58;101221.53;5071211;28;20036;-20
2021/10/28 01:02:06;;;;;;;30.73;18.65;;;;;;;7.87;79.00;101213.31;5071031;28;20025;-21
2021/10/28 01:04:32;;;;;;;31.67;18.40;;;;;;;7.65;79.24;101199.81;5071009;28;20029;-20
2021/10/28 01:06:58;;;;;;;31.30;19.05;;;;;;;7.77;78.79;101198.44;5071030;28;20377;-20
2021/10/28 01:09:23;;;;;;;32.08;19.00;;;;;;;8.03;77.93;101205.31;5070981;28;20086;-20
2021/10/28 01:11:50;;;;;;;33.78;19.98;;;;;;;7.90;77.77;101197.88;5070457;28;20028;-20
2021/10/28 01:14:16;;;;;;;31.75;18.95;;;;;;;8.06;77.01;101210.25;5053353;28;20028;-20
2021/10/28 01:16:41;;;;;;;29.77;19.90;;;;;;;7.56;78.40;101195.50;5070836;28;20031;-20
2021/10/28 01:19:08;;;;;;;34.88;19.50;;;;;;;7.57;78.94;101208.63;5071115;28;20098;-20
2021/10/28 01:21:33;;;;;;;31.90;19.45;;;;;;;7.32;79.74;101199.09;5070874;28;20483;-20
2021/10/28 01:23:59;;;;;;;35.10;20.90;;;;;;;7.53;79.38;101207.31;5070666;28;20032;-20
2021/10/28 01:26:24;;;;;;;37.15;20.35;;;;;;;7.52;79.09;101207.47;5070720;28;20025;-20
2021/10/28 01:28:54;;;;;;;35.88;21.40;;;;;;;7.73;77.50;101204.28;5070567;28;20041;-20
2021/10/28 01:31:21;;;;;;;35.08;20.00;;;;;;;7.41;77.66;101190.09;5070689;28;20032;-20
2021/10/28 01:33:47;;;;;;;32.25;20.20;;;;;;;7.28;78.53;101195.13;5052377;28;20105;-20
2021/10/28 01:36:12;;;;;;;34.42;20.30;;;;;;;7.05;79.65;101198.47;5070435;28;20459;-20
2021/10/28 01:38:38;;;;;;;32.88;19.85;;;;;;;7.26;78.42;101197.94;5052627;28;20035;-20
2021/10/28 01:41:04;;;;;;;38.30;20.75;;;;;;;7.29;78.17;101194.94;5052565;28;20488;-22
2021/10/28 01:43:31;;;;;;;38.40;21.17;;;;;;;7.21;78.47;101198.44;5070708;28;20031;-20
2021/10/28 01:45:56;;;;;;;39.03;22.52;;;;;;;7.33;78.23;101195.44;5070324;28;20079;-20
2021/10/28 01:48:24;;;;;;;35.53;20.83;;;;;;;7.40;77.97;101186.63;5069997;28;20032;-20
2021/10/28 01:50:49;;;;;;;34.05;19.85;;;;;;;7.42;77.39;101184.63;5070274;28;20051;-19
2021/10/28 01:53:15;;;;;;;39.35;21.92;;;;;;;7.04;78.60;101183.53;5070332;28;20025;-20
2021/10/28 01:55:41;;;;;;;43.35;23.17;;;;;;;7.31;78.28;101198.25;5070106;28;20051;-20
2021/10/28 01:58:07;;;;;;;34.90;21.55;;;;;;;7.27;78.64;101201.41;5070319;28;20035;-20
2021/10/28 02:00:33;;;;;;;42.25;21.60;;;;;;;7.08;78.55;101187.50;5069870;28;20119;-21
2021/10/28 02:02:58;;;;;;;41.65;24.73;;;;;;;7.43;77.36;101186.25;5070079;28;20025;-20
2021/10/28 02:05:24;;;;;;;37.20;22.40;;;;;;;7.74;75.96;101205.91;5069779;28;20036;-20
2021/10/28 02:07:50;;;;;;;39.95;22.40;;;;;;;7.82;75.08;101192.59;5069967;28;20037;-20
2021/10/28 02:10:16;;;;;;;39.80;23.35;;;;;;;7.74;75.57;101214.69;5069621;28;20528;-20
2021/10/28 02:12:42;;;;;;;37.58;23.52;;;;;;;7.57;75.41;101197.19;5069775;28;20029;-19
2021/10/28 02:15:09;;;;;;;36.50;21.85;;;;;;;7.80;74.79;101207.88;5069664;28;20572;-20
2021/10/28 02:17:35;;;;;;;39.63;22.92;;;;;;;7.78;74.74;101209.88;5052028;28;20032;-20
2021/10/28 02:20:01;;;;;;;38.70;22.90;;;;;;;7.61;75.31;101204.63;5069429;28;20148;-20
2021/10/28 02:22:26;;;;;;;36.63;22.35;;;;;;;7.68;74.68;101214.56;5069482;28;20032;-20
2021/10/28 02:24:52;;;;;;;41.00;23.90;;;;;;;7.38;75.48;101209.03;5069505;28;20098;-20
2021/10/28 02:27:18;;;;;;;38.72;21.92;;;;;;;7.51;74.94;101208.50;5069430;28;20534;-20
2021/10/28 02:29:43;;;;;;;37.30;22.83;;;;;;;7.49;74.82;101213.97;5051319;28;20079;-23
2021/10/28 02:32:09;;;;;;;40.30;22.63;;;;;;;7.28;76.00;101208.38;5069413;28;20115;-20
2021/10/28 02:34:36;;;;;;;36.55;23.02;;;;;;;7.27;75.43;101190.78;5069596;28;20060;-20
2021/10/28 02:37:02;;;;;;;39.08;22.67;;;;;;;7.65;74.22;101213.91;5069765;28;20033;-20
2021/10/28 02:39:28;;;;;;;38.63;22.27;;;;;;;7.64;73.68;101204.31;5069112;28;20069;-20
2021/10/28 02:41:54;;;;;;;37.67;21.67;;;;;;;7.75;73.08;101215.53;5068940;28;20043;-20
2021/10/28 02:44:19;;;;;;;37.90;21.83;;;;;;;7.13;75.33;101210.88;5069062;28;20028;-20
2021/10/28 02:46:45;;;;;;;40.25;22.13;;;;;;;6.89;76.40;101204.63;5069064;28;20028;-20
2021/10/28 02:49:14;;;;;;;36.05;21.85;;;;;;;7.22;75.79;101216.00;5051258;28;20408;-19
2021/10/28 02:51:41;;;;;;;34.00;21.73;;;;;;;7.53;73.90;101223.25;5069297;28;20468;-20
2021/10/28 02:54:07;;;;;;;38.97;21.45;;;;;;;7.35;73.52;101207.53;5069256;28;20034;-20
2021/10/28 02:56:32;;;;;;;35.13;20.58;;;;;;;7.50;72.86;101220.09;5068789;28;20033;-20
2021/10/28 02:58:58;;;;;;;33.08;20.75;;;;;;;7.61;72.28;101225.88;5068964;28;20601;-20
2021/10/28 03:01:24;;;;;;;33.95;19.77;;;;;;;7.32;73.55;101226.44;5068229;28;20071;-20
2021/10/28 03:03:50;;;;;;;32.42;20.23;;;;;;;7.26;74.20;101215.69;5068768;28;20146;-20
2021/10/28 03:06:15;;;;;;;35.00;19.67;;;;;;;7.28;73.25;101225.13;5069060;28;20107;-20
2021/10/28 03:08:41;;;;;;;31.60;20.05;;;;;;;7.38;71.53;101214.34;5068723;28;20037;-20
2021/10/28 03:11:08;;;;;;;34.80;19.88;;;;;;;7.65;71.06;101234.31;5050894;28;20032;-20
2021/10/28 03:13:34;;;;;;;31.50;18.08;;;;;;;7.16;72.39;101222.00;5068790;28;20025;-20
2021/10/28 03:16:10;;;;;;;31.10;19.05;;;;;;;6.73;73.98;101226.66;5068524;28;20028;-20
2021/10/28 03:26:48;;;;;;;28.73;18.88;;;;;;;7.23;71.97;101244.22;5068544;28;20044;-20
2021/10/28 03:29:13;;;;;;;30.00;18.15;;;;;;;7.17;71.18;101239.56;5050601;28;20037;-20
2021/10/28 03:31:39;;;;;;;35.35;19.85;;;;;;;7.28;70.76;101234.91;5068468;28;20483;-20
2021/10/28 03:34:04;;;;;;;31.23;19.08;;;;;;;7.32;70.85;101241.56;5067745;28;20028;-21
2021/10/28 03:37:16;;;;;;;32.22;17.65;;;;;;;7.33;70.52;101240.53;5067979;28;20036;-20
2021/10/28 04:30:50;;;;;;;33.60;17.75;;;;;;;5.03;76.46;101259.16;5071655;28;20067;-20
2021/10/28 04:33:16;;;;;;;35.83;18.20;;;;;;;5.53;74.40;101275.38;5053823;28;20447;-21
2021/10/28 04:35:41;;;;;;;33.58;17.60;;;;;;;5.91;72.84;101274.09;5071993;28;20788;-21
2021/10/28 04:38:07;;;;;;;32.00;18.10;;;;;;;5.40;73.04;101260.75;5053830;28;20039;-20
2021/10/28 04:40:32;;;;;;;30.60;18.42;;;;;;;5.16;75.38;101269.34;5071543;28;20526;-21
2021/10/28 04:42:58;;;;;;;27.35;16.55;;;;;;;5.78;73.50;101282.50;5053837;28;20039;-20
2021/10/28 04:45:23;;;;;;;26.98;16.27;;;;;;;6.23;71.05;101273.44;5071314;28;20032;-20
2021/10/28 04:47:49;;;;;;;29.23;16.40;;;;;;;6.34;70.55;101274.13;5071340;28;20039;-20
2021/10/28 04:50:14;;;;;;;62.10;26.77;;;;;;;5.98;71.08;101276.97;5071355;28;20035;-20
2021/10/28 04:52:40;;;;;;;46.00;21.73;;;;;;;5.85;72.15;101280.03;5053411;28;20036;-20
2021/10/28 04:55:06;;;;;;;39.58;19.48;;;;;;;6.24;70.49;101292.81;5071311;28;20047;-20
2021/10/28 04:57:31;;;;;;;29.25;16.83;;;;;;;5.92;71.20;101286.34;5071110;28;20043;-20
2021/10/28 04:59:57;;;;;;;27.35;16.27;;;;;;;6.18;71.40;101285.50;5070793;28;20123;-20
2021/10/28 05:02:22;;;;;;;30.45;18.02;;;;;;;6.30;70.87;101278.91;5071470;28;20033;-20
2021/10/28 05:04:48;;;;;;;25.27;16.42;;;;;;;6.52;69.73;101297.84;5071214;28;20051;-20
2021/10/28 05:07:14;;;;;;;26.65;15.70;;;;;;;6.47;69.57;101294.88;5070887;28;20036;-20
2021/10/28 05:09:43;;;;;;;26.13;15.73;;;;;;;6.37;70.37;101287.88;5071445;28;20032;-20
2021/10/28 05:12:09;;;;;;;26.23;16.55;;;;;;;6.61;69.45;101296.88;5070869;28;20714;-20
2021/10/28 05:14:34;;;;;;;25.80;16.25;;;;;;;6.58;69.36;101298.03;5070877;28;20016;-22
2021/10/28 05:17:00;;;;;;;34.05;16.20;;;;;;;6.07;71.42;101291.94;5070976;28;20039;-20
2021/10/28 05:19:28;;;;;;;31.27;17.67;;;;;;;5.47;74.16;101278.66;5071112;28;20032;-20
2021/10/28 05:21:54;;;;;;;38.60;20.73;;;;;;;5.22;76.40;101305.75;5053155;28;20357;-20
2021/10/28 05:24:19;;;;;;;37.03;20.27;;;;;;;5.39;75.54;101300.59;5070134;28;20511;-20
2021/10/28 05:26:45;;;;;;;29.90;17.92;;;;;;;5.22;76.53;101304.94;5070700;28;20039;-20
2021/10/28 05:29:10;;;;;;;28.52;17.15;;;;;;;5.01;77.35;101307.91;5070781;28;20036;-20
2021/10/28 05:31:36;;;;;;;21.38;13.82;;;;;;;4.66;78.27;101309.56;5070359;28;20071;-20
2021/10/28 05:34:01;;;;;;;32.60;15.40;;;;;;;4.70;78.83;101316.19;5070301;28;20901;-19
2021/10/28 05:36:27;;;;;;;28.67;16.48;;;;;;;4.67;79.24;101318.31;5070331;28;20039;-21
2021/10/28 05:38:53;;;;;;;30.63;16.85;;;;;;;5.04;77.55;101300.47;5070684;28;20032;-20
2021/10/28 05:41:19;;;;;;;29.65;18.05;;;;;;;5.75;74.74;101319.03;5070504;28;20488;-20
2021/10/28 05:43:44;;;;;;;37.67;22.48;;;;;;;5.80;74.95;101298.19;5070398;28;20032;-20
2021/10/28 05:46:10;;;;;;;37.20;24.92;;;;;;;6.28;74.49;101318.00;5052461;28;20079;-20
2021/10/28 05:48:35;;;;;;;33.65;22.02;;;;;;;6.13;75.67;101324.88;5070229;28;20098;-20
2021/10/28 05:51:01;;;;;;;33.10;20.95;;;;;;;6.62;73.34;101331.19;5070408;28;20044;-20
2021/10/28 05:53:27;;;;;;;33.90;19.70;;;;;;;6.70;73.53;101343.63;5070436;28;20032;-20
2021/10/28 05:55:53;;;;;;;35.33;20.67;;;;;;;6.02;75.43;101305.63;5069793;28;20063;-22
2021/10/28 05:58:18;;;;;;;29.63;17.67;;;;;;;5.95;76.62;101309.91;5052368;28;20083;-21
2021/10/28 06:00:44;;;;;;;30.10;18.55;;;;;;;5.79;77.42;101320.38;5052447;28;20025;-20
2021/10/28 06:03:10;;;;;;;32.05;19.33;;;;;;;6.25;76.53;101336.84;5070078;28;20420;-20
2021/10/28 06:05:36;;;;;;;31.48;19.98;;;;;;;6.09;77.42;101336.75;5069984;28;20115;-20
2021/10/28 06:08:01;;;;;;;34.17;20.70;;;;;;;6.70;76.20;101350.75;5069584;28;20047;-20
2021/10/28 06:10:27;;;;;;;31.48;19.00;;;;;;;6.87;75.07;101348.97;5069858;28;20138;-20
2021/10/28 06:12:54;;;;;;;28.67;19.10;;;;;;;7.00;74.63;101330.75;5051981;28;20033;-19
2021/10/28 06:15:20;;;;;;;29.47;17.63;;;;;;;7.32;75.00;101347.69;5069843;28;20032;-20
2021/10/28 06:20:18;;;;;;;27.33;15.18;;;;;;;7.17;74.82;101356.31;5052734;28;20048;-19
2021/10/28 06:22:44;;;;;;;28.23;16.67;;;;;;;7.11;74.70;101341.06;5051744;28;20028;-20
2021/10/28 06:25:10;;;;;;;24.80;15.38;;;;;;;6.92;75.33;101357.25;5069600;28;20476;-21
2021/10/28 06:27:35;;;;;;;28.40;16.92;;;;;;;6.87;75.96;101338.38;5034984;28;20050;-20
2021/10/28 06:30:01;;;;;;;26.48;16.42;;;;;;;6.91;76.53;101358.25;5069476;28;20536;-20
2021/10/28 06:32:26;;;;;;;27.35;17.13;;;;;;;6.98;75.77;101364.56;5069437;28;20424;-20
2021/10/28 06:34:52;;;;;;;26.80;15.45;;;;;;;6.98;75.57;101361.91;5068392;28;20089;-20
2021/10/28 06:37:18;;;;;;;25.30;14.73;;;;;;;7.04;76.55;101353.31;5069068;28;20020;-20
2021/10/28 06:39:43;;;;;;;36.20;20.90;;;;;;;7.21;76.13;101360.28;5068851;28;20024;-20
2021/10/28 06:42:11;;;;;;;29.40;17.30;;;;;;;7.39;75.67;101359.28;5069263;28;20040;-21
2021/10/28 06:44:38;;;;;;;25.40;15.43;;;;;;;7.52;75.30;101354.31;5069176;28;20060;-21
2021/10/28 06:47:05;;;;;;;25.63;14.90;;;;;;;7.42;74.83;101349.19;5051184;28;20115;-20
2021/10/28 06:49:33;;;;;;;25.02;14.77;;;;;;;7.76;74.42;101358.75;5069149;28;20024;-20
2021/10/28 06:51:59;;;;;;;26.35;14.82;;;;;;;7.89;72.99;101352.13;5068602;28;20064;-20
2021/10/28 06:54:31;;;;;;;24.08;14.90;;;;;;;8.27;73.38;101363.78;5069234;28;20051;-20
2021/10/28 07:02:29;;;;;;;27.10;15.40;;;;;;;8.37;73.32;101361.75;5068894;28;20031;-20
2021/10/28 07:04:57;;;;;;;;;;;;;;;8.34;72.84;101370.06;5054842;28;20032;-20
2021/10/28 07:07:25;;;;;;;25.83;15.77;;;;;;;8.89;72.40;101372.81;5068955;28;19912;-20
2021/10/28 07:10:03;;;;;;;22.48;14.55;;;;;;;8.74;70.59;101360.25;5068399;28;20040;-20
2021/10/28 07:15:06;;;;;;;24.88;14.95;;;;;;;9.04;71.19;101376.38;5068866;28;20051;-21
2021/10/28 07:17:45;;;;;;;23.92;14.45;;;;;;;9.05;70.47;101372.69;5051698;28;20032;-20
2021/10/28 08:29:34;;;;;;;20.90;12.57;;;;;;;12.22;61.39;101326.16;5029590;28;20102;-20
2021/10/28 08:32:00;;;;;;;18.13;11.23;;;;;;;12.48;60.29;101332.63;5067551;28;20503;-20
2021/10/28 08:34:31;;;;;;;17.77;12.40;;;;;;;12.50;60.83;101331.38;5067484;28;20511;-20
2021/10/28 08:37:05;;;;;;;18.10;12.40;;;;;;;12.68;60.63;101327.34;5050754;28;20043;-20
2021/10/28 08:39:30;;;;;;;17.08;11.35;;;;;;;12.93;59.81;101335.63;5051041;28;20035;-19
2021/10/28 08:41:56;;;;;;;16.38;11.35;;;;;;;13.01;59.38;101330.06;5067301;28;20028;-21
2021/10/28 08:44:23;;;;;;;18.40;11.38;;;;;;;13.34;59.28;101323.94;5033185;28;20569;-20
2021/10/28 08:46:49;;;;;;;16.45;11.43;;;;;;;13.68;58.04;101322.09;5049822;28;20029;-21
2021/10/28 08:49:20;;;;;;;17.85;13.07;;;;;;;13.64;57.42;101322.47;5067575;28;20028;-20
2021/10/28 09:24:43;;;;;;;13.50;9.35;;;;;;;15.55;51.94;101287.81;5055851;28;20143;-19
2021/10/28 09:46:10;;;;;;;12.00;8.00;;;;;;;16.60;46.23;101272.50;5006725;28;20131;-20
2021/10/28 09:51:03;;;;;;;12.55;8.30;;;;;;;17.24;46.25;101270.91;5070342;28;20036;-20
2021/10/28 09:53:42;;;;;;;13.57;7.93;;;;;;;17.18;44.64;101279.94;5070341;28;20040;-20
2021/10/28 09:58:51;;;;;;;11.18;8.15;;;;;;;16.50;47.66;101264.97;5070191;28;20043;-19
2021/10/28 10:01:38;;;;;;;11.25;7.30;;;;;;;16.55;42.84;101253.50;5035407;28;20032;-20
2021/10/28 10:04:06;;;;;;;10.65;7.93;;;;;;;16.67;47.79;101254.38;5069629;28;20071;-21
2021/10/28 10:06:37;;;;;;;10.43;7.32;;;;;;;16.25;44.97;101240.91;5069890;28;20035;-20
2021/10/28 10:09:03;;;;;;;11.27;6.60;;;;;;;16.62;45.68;101235.41;5052585;28;20492;-20
2021/10/28 10:11:29;;;;;;;11.35;7.18;;;;;;;16.88;43.53;101244.97;5070041;28;20035;-20
2021/10/28 10:13:55;;;;;;;9.85;7.32;;;;;;;16.86;44.41;101250.59;5069849;28;20025;-21
2021/10/28 10:16:21;;;;;;;11.95;8.10;;;;;;;17.42;45.09;101244.88;5051883;28;20029;-21
2021/10/28 10:18:52;;;;;;;12.57;8.27;;;;;;;17.09;45.51;101229.28;5069621;28;20033;-21
2021/10/28 10:21:37;;;;;;;11.55;7.68;;;;;;;16.91;42.80;101232.91;5051517;28;20024;-20
2021/10/28 11:28:06;;;;;;;12.43;5.85;;;;;;;19.58;38.02;101161.13;5068365;28;20231;-20
2021/10/28 12:16:15;;;;;;;8.60;4.88;;;;;;;22.10;30.52;101122.19;5024973;28;20055;-20
2021/10/28 12:45:51;;;;;;;9.60;4.68;;;;;;;22.36;30.17;101093.97;5071385;28;20467;-21
2021/10/28 12:54:06;;;;;;;9.30;5.38;;;;;;;22.53;30.17;101095.59;5054048;28;20040;-21
2021/10/28 12:56:59;;;;;;;6.85;5.00;;;;;;;22.59;29.33;101089.84;5071412;28;20032;-20
2021/10/28 13:48:12;;;;;;;9.25;5.03;;;;;;;27.78;20.87;101065.22;5027831;28;20052;-20
2021/10/28 15:28:40;;;;;;;21.95;13.55;;;;;;;16.17;46.72;101059.03;5068488;28;20122;-20
2021/10/28 16:00:54;;;;;;;71.30;36.28;;;;;;;14.52;51.31;101060.00;5068291;28;20090;-20
2021/10/28 16:22:12;;;;;;;73.63;45.80;;;;;;;12.81;59.04;101073.91;5074652;28;20039;-20
2021/10/28 16:24:38;;;;;;;80.72;48.15;;;;;;;12.78;58.62;101033.34;5074655;28;20032;-21
2021/10/28 16:27:03;;;;;;;79.28;47.83;;;;;;;13.44;57.03;101075.16;5074378;28;20185;-21
2021/10/28 16:29:29;;;;;;;87.40;52.33;;;;;;;13.10;58.16;101074.44;5074694;28;20074;-20
2021/10/28 16:31:55;;;;;;;159.40;74.47;;;;;;;13.03;58.83;101073.63;5056107;28;20056;-20
2021/10/28 16:34:20;;;;;;;236.02;95.45;;;;;;;13.00;59.54;101079.41;5074508;28;20025;-21
2021/10/28 16:36:47;;;;;;;186.25;81.25;;;;;;;12.94;59.47;101053.47;5056470;28;20032;-21
2021/10/28 16:39:14;;;;;;;118.53;55.97;;;;;;;13.22;58.50;101079.97;5074399;28;20086;-20
2021/10/28 16:41:41;;;;;;;116.10;57.90;;;;;;;13.35;57.55;101087.97;5074386;28;20032;-20
2021/10/28 16:44:07;;;;;;;158.03;69.10;;;;;;;12.62;59.91;101080.91;5074600;28;20526;-20
2021/10/28 16:46:33;;;;;;;202.52;81.32;;;;;;;12.28;61.49;101090.00;5074472;28;20030;-21
2021/10/28 16:48:59;;;;;;;211.25;79.82;;;;;;;12.46;60.39;101049.22;5074381;28;20028;-21
2021/10/28 16:51:25;;;;;;;163.23;74.53;;;;;;;12.59;60.94;101073.31;5074382;28;20036;-21
2021/10/28 16:53:52;;;;;;;135.65;61.72;;;;;;;11.59;65.56;101089.19;5074206;28;20040;-21
2021/10/28 16:56:18;;;;;;;121.78;60.90;;;;;;;12.09;62.97;101088.09;5074178;28;20029;-23
2021/10/28 16:58:43;;;;;;;133.73;61.53;;;;;;;11.97;63.55;101096.75;5074027;28;20086;-22
2021/10/28 17:01:11;;;;;;;120.32;58.72;;;;;;;12.26;61.69;101079.50;5074217;28;20124;-21
2021/10/28 17:03:37;;;;;;;105.60;54.35;;;;;;;12.33;61.60;101090.19;5056081;28;20054;-21
2021/10/28 17:06:03;;;;;;;97.47;49.58;;;;;;;12.31;60.87;101081.53;5073802;28;20036;-21
2021/10/28 17:08:29;;;;;;;91.50;49.00;;;;;;;12.32;59.87;101093.91;5074201;28;20423;-21
2021/10/28 17:10:55;;;;;;;82.53;48.45;;;;;;;12.39;60.54;101100.06;5074305;28;20032;-21
2021/10/28 17:13:21;;;;;;;88.38;46.65;;;;;;;12.46;60.11;101082.16;5056328;28;20107;-21
2021/10/28 17:15:47;;;;;;;81.88;45.17;;;;;;;12.42;59.98;101094.31;5073747;28;20032;-21
2021/10/28 17:18:12;;;;;;;82.65;50.38;;;;;;;12.51;59.47;101096.78;5073975;28;20035;-21
2021/10/28 17:20:38;;;;;;;90.85;53.40;;;;;;;12.52;59.16;101090.38;5051976;28;20412;-20
2021/10/28 17:23:05;;;;;;;97.10;54.67;;;;;;;12.37;59.71;101091.41;5071059;28;20119;-21
2021/10/28 17:25:36;;;;;;;98.55;55.55;;;;;;;12.33;59.14;101090.19;5070611;28;20029;-22
2021/10/28 17:28:02;;;;;;;107.90;60.05;;;;;;;11.42;62.72;101103.91;5052368;28;20060;-22
2021/10/28 17:30:27;;;;;;;107.25;58.72;;;;;;;11.38;64.20;101108.00;5071067;28;20036;-21
2021/10/28 17:32:53;;;;;;;114.43;61.97;;;;;;;11.20;64.05;101106.69;5049027;28;20057;-21
2021/10/28 17:35:18;;;;;;;95.80;56.67;;;;;;;10.58;67.08;101100.34;5049400;28;20024;-21
2021/10/28 17:37:44;;;;;;;113.10;60.58;;;;;;;10.66;66.64;101115.38;5050407;28;20064;-22
2021/10/28 17:40:10;;;;;;;127.10;68.95;;;;;;;10.86;65.96;101110.19;5050376;28;20065;-22
2021/10/28 17:42:35;;;;;;;130.70;69.20;;;;;;;10.45;67.46;101109.03;5032764;28;20075;-22
2021/10/28 17:45:02;;;;;;;128.27;70.72;;;;;;;11.02;65.15;101114.38;5049113;28;20028;-21
2021/10/28 17:47:28;;;;;;;159.30;92.32;;;;;;;11.19;63.78;101115.72;5049110;28;20116;-21
2021/10/28 17:49:55;;;;;;;125.35;61.25;;;;;;;10.37;67.77;101124.38;5048636;28;20112;-21
2021/10/28 17:52:21;;;;;;;111.43;57.85;;;;;;;10.53;66.36;101104.59;5033080;28;20056;-22
2021/10/28 17:54:46;;;;;;;111.20;56.65;;;;;;;10.67;66.46;101114.34;5050424;28;20041;-22
2021/10/28 17:57:13;;;;;;;97.30;54.55;;;;;;;10.25;67.30;101094.69;5050524;28;20528;-21
2021/10/28 17:59:39;;;;;;;94.63;54.40;;;;;;;9.96;69.64;101119.63;5050637;28;20060;-21
2021/10/28 18:02:04;;;;;;;89.82;51.10;;;;;;;10.12;68.83;101118.56;5048597;28;20035;-23
2021/10/28 18:04:30;;;;;;;97.80;50.47;;;;;;;10.69;66.26;101106.16;5050127;28;20432;-22
2021/10/28 18:06:56;;;;;;;90.28;51.65;;;;;;;10.92;64.70;101108.56;5050033;28;20033;-22
2021/10/28 18:09:26;;;;;;;83.25;47.10;;;;;;;11.27;63.11;101120.88;5050114;28;20036;-22
2021/10/28 18:11:52;;;;;;;82.82;44.22;;;;;;;11.00;63.75;101125.25;5049942;28;20037;-22
2021/10/28 18:14:18;;;;;;;72.10;43.08;;;;;;;11.06;63.17;101126.31;5050045;28;20025;-22
2021/10/28 18:16:44;;;;;;;74.75;43.35;;;;;;;11.02;63.68;101127.75;5049818;28;20048;-22
2021/10/28 18:19:10;;;;;;;76.18;43.47;;;;;;;10.90;63.89;101111.44;5050052;28;20733;-23
2021/10/28 18:21:41;;;;;;;57.88;34.78;;;;;;;10.96;61.96;101116.00;5048526;28;20419;-21
2021/10/28 18:24:07;;;;;;;63.03;36.83;;;;;;;10.10;65.92;101125.94;5032441;28;20481;-22
2021/10/28 18:26:32;;;;;;;77.20;45.13;;;;;;;9.99;66.97;101135.22;5049496;28;20029;-21
2021/10/28 18:29:02;;;;;;;83.18;46.42;;;;;;;9.85;66.97;101119.09;5049494;28;20061;-21
2021/10/28 18:31:28;;;;;;;68.47;39.53;;;;;;;10.04;66.84;101138.97;5049082;28;20028;-21
2021/10/28 18:33:57;;;;;;;68.85;40.97;;;;;;;10.29;65.70;101121.78;5068100;28;20087;-21
2021/10/28 18:36:27;;;;;;;65.40;41.53;;;;;;;10.48;64.57;101123.00;5051548;28;20028;-21
2021/10/28 18:38:54;;;;;;;74.40;39.33;;;;;;;10.63;63.89;101132.59;5035621;28;20036;-22
2021/10/28 18:41:19;;;;;;;83.95;46.25;;;;;;;10.12;65.02;101113.22;5034881;28;20021;-23
2021/10/28 18:43:46;;;;;;;97.15;49.10;;;;;;;9.88;66.24;101131.22;5058450;28;20055;-21
2021/10/28 18:46:12;;;;;;;80.60;44.92;;;;;;;9.87;67.54;101142.91;5077659;28;20099;-21
2021/10/28 18:48:38;;;;;;;71.28;42.90;;;;;;;10.08;65.91;101141.28;5079275;28;20073;-22
2021/10/28 18:51:04;;;;;;;72.65;42.17;;;;;;;10.31;65.25;101135.78;5078803;28;20435;-21
2021/10/28 18:53:29;;;;;;;69.63;41.75;;;;;;;9.42;68.35;101123.50;5077938;28;20062;-21
2021/10/28 18:55:55;;;;;;;88.63;47.50;;;;;;;9.40;69.42;101147.66;5079688;28;20024;-21
2021/10/28 18:58:21;;;;;;;77.15;43.28;;;;;;;9.92;66.77;101145.81;5078253;28;20033;-21
2021/10/28 19:00:49;;;;;;;69.22;39.78;;;;;;;9.69;67.60;101145.16;5062170;28;20062;-22
2021/10/28 19:03:16;;;;;;;66.97;36.20;;;;;;;9.37;69.01;101152.50;5089105;28;20036;-21
2021/10/28 19:05:41;;;;;;;51.08;30.80;;;;;;;9.05;69.44;101130.56;5088894;28;20047;-21
2021/10/28 19:08:07;;;;;;;43.75;27.00;;;;;;;9.54;67.94;101148.66;5070860;28;20030;-22
2021/10/28 19:10:32;;;;;;;38.47;22.55;;;;;;;9.87;65.91;101153.56;5070914;28;20028;-21
2021/10/28 19:12:58;;;;;;;47.65;28.05;;;;;;;10.31;64.82;101157.13;5054224;28;20040;-21
2021/10/28 19:15:23;;;;;;;46.70;32.28;;;;;;;10.16;64.99;101147.31;5088903;28;20749;-21
2021/10/28 19:17:52;;;;;;;41.03;26.83;;;;;;;10.18;64.16;101155.94;5088903;28;20103;-21
2021/10/28 19:20:18;;;;;;;37.92;24.40;;;;;;;9.35;67.89;101159.84;5088170;28;20092;-21
2021/10/28 19:22:43;;;;;;;39.85;24.38;;;;;;;9.25;68.54;101150.31;5088855;28;20043;-21
2021/10/28 19:25:09;;;;;;;35.22;21.95;;;;;;;9.84;66.34;101153.91;5088927;28;20024;-21
2021/10/28 19:27:35;;;;;;;30.38;19.75;;;;;;;10.10;64.90;101152.56;5088598;28;20531;-21
2021/10/28 19:30:15;;;;;;;28.25;19.90;;;;;;;9.72;65.30;101142.09;5070326;28;20093;-21
2021/10/28 19:32:41;;;;;;;26.10;19.00;;;;;;;10.12;64.40;101155.88;5088760;28;20044;-21
2021/10/28 19:35:07;;;;;;;28.88;18.98;;;;;;;9.93;64.72;101163.47;5070723;28;20487;-21
2021/10/28 19:40:20;;;;;;;23.60;17.52;;;;;;;9.32;67.20;101152.25;5088475;28;20096;-21
2021/10/28 19:47:49;;;;;;;27.27;19.25;;;;;;;9.14;68.12;101169.41;5071167;28;20043;-21
2021/10/28 19:50:14;;;;;;;27.48;18.73;;;;;;;8.55;70.01;101163.97;5088692;28;20024;-22
2021/10/28 19:52:41;;;;;;;29.95;18.58;;;;;;;8.72;69.43;101173.44;5088618;28;20039;-21
2021/10/28 19:55:07;;;;;;;28.23;20.05;;;;;;;8.41;71.27;101177.00;5088386;28;20028;-21
2021/10/28 19:57:36;;;;;;;28.13;18.75;;;;;;;8.16;71.47;101168.34;5070188;28;20114;-21
2021/10/28 20:00:28;;;;;;;33.47;21.75;;;;;;;8.44;70.54;101187.28;5087893;28;20110;-21
2021/10/28 20:13:01;;;;;;;43.58;26.27;;;;;;;8.38;70.63;101181.84;5043034;28;20125;-21
2021/10/28 20:14:36;;;;;;;55.92;31.63;;;;;;;8.58;69.64;101183.03;5087959;28;20514;-21
2021/10/28 20:22:05;;;;;;;60.22;33.42;;;;;;;8.74;69.02;101175.94;5088019;28;20082;-22
2021/10/28 20:24:31;;;;;;;68.13;43.28;;;;;;;8.95;68.08;101193.84;5070096;28;20102;-20
2021/10/28 20:26:56;;;;;;;63.00;37.90;;;;;;;8.99;68.47;101197.81;5087775;28;20453;-21
2021/10/28 20:29:22;;;;;;;52.92;32.92;;;;;;;9.06;67.38;101193.44;5087859;28;20032;-21
2021/10/28 20:31:47;;;;;;;43.88;29.85;;;;;;;9.20;66.81;101197.94;5087607;28;20079;-21
2021/10/28 20:34:35;;;;;;;38.03;25.35;;;;;;;9.24;65.73;101172.63;5087971;28;20035;-21
2021/10/28 20:37:05;;;;;;;;;;;;;;;9.40;65.74;101202.75;5074048;28;20497;-21
2021/10/28 20:39:32;;;;;;;40.75;26.05;;;;;;;9.08;66.62;101170.13;5088140;28;19916;-21
2021/10/28 20:41:57;;;;;;;38.17;25.20;;;;;;;8.74;69.06;101197.19;5087938;28;20120;-21